createdAt,value
2023-02-16T00:00:52.822Z,12.13
2023-02-16T00:01:56.332Z,13.25
2023-02-16T00:02:59.175Z,11.60
2023-02-16T00:04:03.122Z,10.45
2023-02-16T00:05:22.356Z,12.20
2023-02-16T00:06:26.132Z,12.48
2023-02-16T00:07:28.043Z,12.40
2023-02-16T00:08:30.932Z,11.60
2023-02-16T00:09:33.856Z,12.25
2023-02-16T00:10:37.555Z,12.13
2023-02-16T00:12:06.613Z,12.25
2023-02-16T00:13:45.621Z,12.73
2023-02-16T00:14:48.638Z,11.70
2023-02-16T00:15:50.699Z,11.55
2023-02-16T00:16:54.351Z,13.15
2023-02-16T00:17:58.661Z,11.80
2023-02-16T00:19:01.725Z,10.82
2023-02-16T00:20:06.876Z,11.65
2023-02-16T00:21:09.773Z,13.40
2023-02-16T00:22:12.688Z,13.10
2023-02-16T00:23:14.930Z,11.30
2023-02-16T00:24:18.403Z,12.10
2023-02-16T00:25:20.326Z,12.63
2023-02-16T00:26:25.300Z,11.77
2023-02-16T00:27:28.606Z,10.90
2023-02-16T00:28:31.585Z,11.93
2023-02-16T00:29:36.179Z,11.35
2023-02-16T00:30:38.963Z,12.85
2023-02-16T00:31:42.035Z,11.70
2023-02-16T00:32:44.211Z,12.20
2023-02-16T00:33:49.591Z,13.63
2023-02-16T00:34:52.608Z,13.23
2023-02-16T00:35:54.592Z,11.75
2023-02-16T00:36:59.169Z,11.90
2023-02-16T00:38:01.117Z,12.13
2023-02-16T00:39:04.097Z,12.02
2023-02-16T00:40:07.379Z,12.48
2023-02-16T00:41:39.381Z,12.50
2023-02-16T00:42:44.134Z,12.80
2023-02-16T00:43:47.110Z,12.10
2023-02-16T00:44:51.692Z,12.25
2023-02-16T00:45:55.637Z,13.32
2023-02-16T00:46:58.953Z,12.73
2023-02-16T00:48:01.915Z,11.43
2023-02-16T00:49:04.083Z,14.30
2023-02-16T00:50:15.833Z,13.43
2023-02-16T00:51:25.760Z,12.07
2023-02-16T00:52:35.244Z,12.52
2023-02-16T00:53:37.182Z,11.20
2023-02-16T00:54:40.067Z,11.85
2023-02-16T00:55:43.724Z,12.30
2023-02-16T00:56:47.517Z,13.07
2023-02-16T00:57:52.399Z,11.18
2023-02-16T00:58:55.378Z,12.18
2023-02-16T01:00:02.172Z,13.55
2023-02-16T01:01:09.557Z,11.65
2023-02-16T01:02:11.797Z,13.75
2023-02-16T01:03:17.324Z,13.52
2023-02-16T01:04:22.429Z,11.60
2023-02-16T01:05:25.855Z,11.68
2023-02-16T01:06:46.426Z,13.45
2023-02-16T01:08:06.915Z,13.00
2023-02-16T01:09:33.453Z,11.95
2023-02-16T01:12:05.232Z,11.25
2023-02-16T01:13:07.248Z,9.57
2023-02-16T01:14:12.923Z,11.40
2023-02-16T01:15:17.548Z,12.48
2023-02-16T01:16:22.801Z,12.02
2023-02-16T01:17:25.249Z,11.90
2023-02-16T01:18:28.208Z,11.95
2023-02-16T01:19:30.186Z,11.38
2023-02-16T01:20:33.163Z,11.10
2023-02-16T01:21:35.115Z,13.43
2023-02-16T01:22:38.061Z,11.57
2023-02-16T01:23:40.265Z,12.45
2023-02-16T01:24:43.158Z,12.63
2023-02-16T01:25:45.188Z,13.48
2023-02-16T01:26:50.704Z,10.27
2023-02-16T01:27:54.278Z,12.48
2023-02-16T01:28:57.214Z,11.93
2023-02-16T01:29:59.131Z,12.15
2023-02-16T01:31:02.519Z,11.30
2023-02-16T01:32:04.840Z,11.00
2023-02-16T01:33:07.846Z,11.45
2023-02-16T01:34:10.088Z,10.85
2023-02-16T01:35:13.250Z,11.05
2023-02-16T01:36:23.393Z,12.30
2023-02-16T01:37:26.327Z,11.40
2023-02-16T01:38:28.921Z,11.32
2023-02-16T01:39:31.855Z,11.82
2023-02-16T01:40:40.958Z,12.27
2023-02-16T01:41:57.086Z,11.82
2023-02-16T01:43:04.277Z,11.13
2023-02-16T01:44:13.908Z,12.40
2023-02-16T01:45:19.031Z,11.25
2023-02-16T01:46:29.702Z,12.95
2023-02-16T01:47:38.079Z,13.20
2023-02-16T01:48:41.256Z,11.93
2023-02-16T01:49:43.200Z,12.23
2023-02-16T01:50:50.548Z,13.60
2023-02-16T01:51:57.422Z,12.50
2023-02-16T01:53:04.759Z,12.50
2023-02-16T01:54:14.199Z,13.15
2023-02-16T01:55:23.087Z,12.65
2023-02-16T01:56:30.840Z,11.98
2023-02-16T01:57:41.099Z,12.48
2023-02-16T01:58:48.354Z,12.15
2023-02-16T02:00:13.412Z,11.68
2023-02-16T02:01:43.167Z,12.70
2023-02-16T02:02:50.476Z,12.35
2023-02-16T02:04:11.085Z,12.00
2023-02-16T02:05:36.743Z,13.35
2023-02-16T02:06:39.039Z,11.68
2023-02-16T02:07:45.983Z,12.70
2023-02-16T02:08:54.361Z,12.27
2023-02-16T02:10:03.720Z,12.50
2023-02-16T02:11:12.395Z,12.48
2023-02-16T02:12:23.850Z,13.52
2023-02-16T02:13:33.843Z,13.15
2023-02-16T02:14:39.337Z,13.85
2023-02-16T02:15:42.341Z,12.90
2023-02-16T02:16:54.422Z,13.82
2023-02-16T02:17:57.346Z,13.80
2023-02-16T02:18:59.259Z,13.65
2023-02-16T02:20:12.121Z,12.68
2023-02-16T02:21:50.371Z,13.52
2023-02-16T02:23:34.240Z,12.82
2023-02-16T02:25:16.026Z,13.43
2023-02-16T02:27:10.951Z,13.20
2023-02-16T02:28:17.686Z,12.93
2023-02-16T02:29:44.772Z,13.18
2023-02-16T02:30:50.341Z,13.20
2023-02-16T02:32:00.837Z,13.07
2023-02-16T02:33:16.290Z,12.52
2023-02-16T02:34:26.990Z,11.68
2023-02-16T02:35:44.818Z,14.68
2023-02-16T02:36:53.192Z,12.68
2023-02-16T02:38:03.974Z,13.60
2023-02-16T02:39:19.887Z,14.73
2023-02-16T02:40:31.220Z,13.00
2023-02-16T02:41:57.475Z,14.15
2023-02-16T02:43:08.512Z,12.23
2023-02-16T02:44:12.097Z,14.48
2023-02-16T02:45:19.725Z,13.40
2023-02-16T02:46:26.484Z,14.07
2023-02-16T02:47:41.973Z,11.13
2023-02-16T02:48:43.933Z,12.65
2023-02-16T02:49:54.195Z,13.60
2023-02-16T02:51:16.451Z,12.82
2023-02-16T02:52:19.684Z,13.52
2023-02-16T02:53:21.965Z,13.90
2023-02-16T02:54:46.494Z,13.00
2023-02-16T02:56:08.950Z,12.27
2023-02-16T02:57:37.591Z,12.40
2023-02-16T02:59:00.451Z,11.75
2023-02-16T03:00:25.795Z,13.40
2023-02-16T03:01:29.185Z,11.82
2023-02-16T03:02:33.538Z,12.57
2023-02-16T03:03:41.377Z,12.82
2023-02-16T03:04:47.005Z,13.80
2023-02-16T03:05:55.855Z,15.13
2023-02-16T03:07:01.279Z,14.40
2023-02-16T03:08:13.988Z,13.73
2023-02-16T03:09:17.007Z,14.18
2023-02-16T03:10:40.408Z,14.40
2023-02-16T03:12:03.876Z,13.70
2023-02-16T03:13:11.240Z,13.60
2023-02-16T03:14:17.027Z,13.25
2023-02-16T03:15:20.514Z,16.17
2023-02-16T03:16:27.906Z,14.02
2023-02-16T03:17:53.291Z,14.20
2023-02-16T03:19:14.801Z,12.10
2023-02-16T03:20:35.671Z,13.68
2023-02-16T03:21:57.093Z,14.73
2023-02-16T03:23:21.442Z,13.40
2023-02-16T03:24:45.373Z,13.68
2023-02-16T03:26:06.275Z,14.10
2023-02-16T03:27:27.781Z,14.30
2023-02-16T03:28:50.589Z,13.38
2023-02-16T03:29:57.251Z,14.07
2023-02-16T03:31:01.545Z,14.00
2023-02-16T03:32:05.275Z,14.75
2023-02-16T03:33:07.369Z,13.13
2023-02-16T03:34:10.559Z,13.70
2023-02-16T03:35:12.803Z,14.55
2023-02-16T03:36:15.862Z,13.13
2023-02-16T03:37:19.076Z,14.82
2023-02-16T03:38:21.522Z,15.05
2023-02-16T03:39:24.532Z,15.27
2023-02-16T03:40:28.600Z,13.80
2023-02-16T03:41:35.093Z,13.30
2023-02-16T03:42:37.041Z,13.32
2023-02-16T03:43:39.938Z,13.30
2023-02-16T03:44:41.820Z,14.82
2023-02-16T03:45:46.904Z,14.73
2023-02-16T03:46:49.601Z,12.68
2023-02-16T03:47:52.551Z,12.70
2023-02-16T03:48:54.507Z,13.35
2023-02-16T03:49:57.390Z,14.13
2023-02-16T03:51:00.290Z,13.65
2023-02-16T03:52:02.275Z,14.13
2023-02-16T03:53:08.110Z,13.18
2023-02-16T03:54:10.187Z,12.63
2023-02-16T03:55:13.270Z,12.93
2023-02-16T03:56:15.198Z,13.52
2023-02-16T03:57:18.078Z,13.07
2023-02-16T03:58:22.637Z,15.02
2023-02-16T03:59:25.577Z,14.23
2023-02-16T04:00:27.673Z,14.50
2023-02-16T04:01:32.072Z,12.88
2023-02-16T04:02:33.986Z,14.63
2023-02-16T04:03:37.016Z,14.20
2023-02-16T04:04:39.002Z,13.35
2023-02-16T04:05:42.787Z,13.45
2023-02-16T04:06:44.738Z,13.63
2023-02-16T04:07:47.703Z,14.15
2023-02-16T04:08:51.531Z,15.13
2023-02-16T04:09:53.515Z,12.73
2023-02-16T04:10:57.527Z,13.80
2023-02-16T04:12:17.983Z,14.63
2023-02-16T04:13:20.156Z,13.52
2023-02-16T04:14:22.147Z,13.35
2023-02-16T04:15:27.163Z,13.75
2023-02-16T04:16:30.518Z,14.73
2023-02-16T04:17:33.533Z,15.48
2023-02-16T04:18:35.492Z,21.90
2023-02-16T04:19:38.461Z,21.02
2023-02-16T04:20:40.504Z,14.65
2023-02-16T04:21:43.968Z,14.68
2023-02-16T04:22:46.671Z,15.95
2023-02-16T04:23:49.672Z,14.55
2023-02-16T04:24:51.690Z,14.98
2023-02-16T04:25:54.603Z,13.75
2023-02-16T04:26:56.709Z,14.05
2023-02-16T04:27:59.782Z,15.90
2023-02-16T04:29:02.755Z,14.40
2023-02-16T04:30:07.472Z,13.50
2023-02-16T04:31:09.572Z,13.13
2023-02-16T04:32:14.008Z,14.40
2023-02-16T04:33:15.926Z,13.77
2023-02-16T04:34:18.952Z,13.07
2023-02-16T04:35:21.435Z,13.77
2023-02-16T04:36:24.335Z,13.07
2023-02-16T04:37:27.227Z,13.05
2023-02-16T04:38:29.142Z,12.85
2023-02-16T04:39:32.119Z,12.38
2023-02-16T04:40:34.046Z,11.57
2023-02-16T04:41:36.939Z,11.52
2023-02-16T04:42:38.936Z,12.23
2023-02-16T04:43:41.811Z,12.02
2023-02-16T04:44:43.826Z,13.38
2023-02-16T04:45:46.840Z,11.10
2023-02-16T04:46:48.758Z,12.27
2023-02-16T04:47:52.995Z,14.00
2023-02-16T04:48:54.912Z,13.07
2023-02-16T04:49:57.875Z,12.50
2023-02-16T04:50:59.876Z,13.45
2023-02-16T04:52:03.954Z,12.43
2023-02-16T04:53:05.911Z,12.48
2023-02-16T04:54:09.289Z,12.30
2023-02-16T04:55:11.264Z,11.55
2023-02-16T04:56:14.599Z,13.23
2023-02-16T04:57:17.506Z,14.23
2023-02-16T04:58:20.424Z,14.18
2023-02-16T04:59:22.383Z,15.13
2023-02-16T05:00:25.742Z,13.02
2023-02-16T05:01:28.612Z,12.68
2023-02-16T05:02:32.791Z,11.20
2023-02-16T05:03:36.114Z,13.38
2023-02-16T05:04:39.189Z,14.27
2023-02-16T05:05:41.346Z,13.68
2023-02-16T05:06:44.620Z,13.00
2023-02-16T05:07:47.560Z,12.90
2023-02-16T05:08:49.573Z,14.50
2023-02-16T05:09:52.694Z,15.82
2023-02-16T05:11:09.568Z,15.90
2023-02-16T05:12:30.266Z,14.77
2023-02-16T05:13:51.085Z,12.05
2023-02-16T05:14:54.032Z,14.23
2023-02-16T05:15:56.727Z,12.27
2023-02-16T05:16:59.739Z,13.80
2023-02-16T05:18:02.628Z,13.18
2023-02-16T05:19:05.944Z,13.50
2023-02-16T05:20:09.235Z,12.98
2023-02-16T05:21:29.439Z,13.57
2023-02-16T05:22:33.554Z,12.75
2023-02-16T05:23:35.473Z,13.90
2023-02-16T05:24:38.991Z,13.50
2023-02-16T05:25:41.194Z,12.93
2023-02-16T05:26:44.130Z,13.75
2023-02-16T05:27:47.138Z,13.93
2023-02-16T05:28:49.149Z,11.70
2023-02-16T05:29:52.424Z,12.60
2023-02-16T05:30:54.461Z,13.65
2023-02-16T05:31:57.843Z,13.45
2023-02-16T05:32:59.835Z,14.07
2023-02-16T05:34:02.734Z,13.77
2023-02-16T05:35:07.503Z,12.18
2023-02-16T05:36:09.898Z,12.88
2023-02-16T05:37:13.304Z,11.80
2023-02-16T05:38:15.333Z,12.55
2023-02-16T05:39:18.341Z,12.50
2023-02-16T05:40:20.443Z,12.25
2023-02-16T05:41:26.334Z,13.38
2023-02-16T05:42:28.248Z,14.15
2023-02-16T05:43:31.264Z,12.90
2023-02-16T05:44:33.310Z,13.85
2023-02-16T05:45:36.438Z,14.45
2023-02-16T05:46:40.438Z,14.63
2023-02-16T05:47:45.077Z,15.32
2023-02-16T05:48:48.965Z,14.85
2023-02-16T05:49:51.862Z,15.38
2023-02-16T05:50:55.628Z,13.13
2023-02-16T05:51:58.596Z,12.70
2023-02-16T05:53:00.533Z,12.30
2023-02-16T05:54:03.445Z,13.40
2023-02-16T05:55:06.988Z,13.90
2023-02-16T05:56:09.031Z,13.82
2023-02-16T05:57:12.052Z,12.40
2023-02-16T05:58:14.058Z,12.75
2023-02-16T05:59:17.671Z,14.10
2023-02-16T06:00:21.271Z,13.75
2023-02-16T06:01:24.243Z,12.60
2023-02-16T06:02:26.219Z,12.23
2023-02-16T06:03:29.590Z,12.68
2023-02-16T06:04:32.754Z,13.80
2023-02-16T06:05:34.679Z,14.70
2023-02-16T06:06:40.438Z,13.27
2023-02-16T06:07:42.597Z,12.65
2023-02-16T06:08:45.661Z,28.10
2023-02-16T06:09:47.658Z,23.73
2023-02-16T06:10:51.667Z,16.70
2023-02-16T06:11:53.645Z,27.95
2023-02-16T06:12:56.606Z,22.10
2023-02-16T06:13:59.413Z,15.75
2023-02-16T06:15:02.509Z,20.55
2023-02-16T06:16:07.681Z,24.52
2023-02-16T06:17:10.675Z,15.40
2023-02-16T06:18:13.546Z,14.63
2023-02-16T06:19:18.528Z,13.52
2023-02-16T06:20:20.651Z,12.90
2023-02-16T06:21:24.832Z,11.32
2023-02-16T06:22:28.216Z,12.88
2023-02-16T06:23:31.195Z,12.95
2023-02-16T06:24:34.097Z,11.93
2023-02-16T06:25:36.114Z,12.35
2023-02-16T06:26:39.156Z,12.93
2023-02-16T06:27:41.056Z,14.65
2023-02-16T06:28:44.176Z,15.88
2023-02-16T06:29:47.249Z,16.02
2023-02-16T06:30:50.053Z,13.13
2023-02-16T06:31:53.080Z,12.45
2023-02-16T06:32:55.227Z,13.57
2023-02-16T06:33:58.138Z,13.88
2023-02-16T06:35:00.036Z,12.95
2023-02-16T06:36:03.000Z,15.52
2023-02-16T06:37:05.906Z,14.35
2023-02-16T06:38:09.179Z,14.50
2023-02-16T06:39:12.350Z,13.00
2023-02-16T06:40:15.852Z,13.13
2023-02-16T06:41:31.288Z,14.15
2023-02-16T06:42:33.610Z,13.05
2023-02-16T06:43:36.656Z,16.02
2023-02-16T06:44:44.215Z,14.38
2023-02-16T06:45:47.933Z,14.00
2023-02-16T06:46:49.972Z,12.40
2023-02-16T06:47:52.895Z,13.02
2023-02-16T06:48:55.936Z,12.85
2023-02-16T06:49:58.900Z,11.88
2023-02-16T06:51:01.008Z,11.43
2023-02-16T06:52:04.009Z,11.15
2023-02-16T06:53:06.065Z,12.50
2023-02-16T06:54:10.560Z,11.27
2023-02-16T06:55:12.764Z,11.10
2023-02-16T06:56:16.093Z,13.27
2023-02-16T06:57:19.084Z,13.05
2023-02-16T06:58:21.076Z,12.90
2023-02-16T06:59:24.090Z,12.13
2023-02-16T07:00:26.392Z,11.80
2023-02-16T07:01:29.899Z,13.60
2023-02-16T07:02:31.893Z,11.82
2023-02-16T07:03:35.387Z,12.75
2023-02-16T07:04:37.579Z,12.10
2023-02-16T07:05:40.520Z,13.43
2023-02-16T07:06:44.410Z,12.82
2023-02-16T07:07:46.387Z,14.57
2023-02-16T07:08:49.557Z,14.07
2023-02-16T07:09:53.039Z,12.60
2023-02-16T07:10:56.046Z,12.93
2023-02-16T07:11:59.422Z,12.68
2023-02-16T07:13:02.386Z,12.43
2023-02-16T07:14:04.344Z,13.68
2023-02-16T07:15:07.796Z,13.88
2023-02-16T07:16:11.290Z,14.82
2023-02-16T07:17:14.246Z,15.93
2023-02-16T07:18:16.314Z,12.23
2023-02-16T07:19:19.979Z,12.05
2023-02-16T07:20:22.098Z,12.55
2023-02-16T07:21:25.052Z,12.63
2023-02-16T07:22:27.053Z,12.77
2023-02-16T07:23:30.099Z,13.52
2023-02-16T07:24:32.114Z,14.27
2023-02-16T07:25:37.254Z,11.55
2023-02-16T07:26:40.324Z,12.35
2023-02-16T07:27:43.306Z,11.45
2023-02-16T07:28:45.242Z,13.00
2023-02-16T07:29:48.176Z,14.60
2023-02-16T07:30:51.263Z,12.68
2023-02-16T07:31:54.538Z,13.23
2023-02-16T07:32:57.755Z,12.90
2023-02-16T07:33:59.732Z,12.07
2023-02-16T07:35:02.723Z,13.85
2023-02-16T07:36:05.660Z,13.23
2023-02-16T07:37:09.020Z,13.23
2023-02-16T07:38:11.275Z,12.82
2023-02-16T07:39:14.174Z,13.63
2023-02-16T07:40:16.101Z,13.60
2023-02-16T07:41:20.394Z,12.90
2023-02-16T07:42:22.350Z,13.50
2023-02-16T07:43:25.809Z,13.40
2023-02-16T07:44:27.848Z,13.35
2023-02-16T07:45:32.606Z,13.18
2023-02-16T07:46:34.651Z,13.48
2023-02-16T07:47:37.650Z,13.73
2023-02-16T07:48:39.592Z,14.52
2023-02-16T07:49:42.699Z,14.77
2023-02-16T07:50:44.610Z,13.50
2023-02-16T07:51:47.590Z,13.55
2023-02-16T07:52:49.554Z,12.70
2023-02-16T07:53:53.063Z,13.85
2023-02-16T07:54:56.040Z,13.20
2023-02-16T07:55:58.082Z,12.75
2023-02-16T07:57:02.410Z,13.48
2023-02-16T07:58:04.791Z,12.50
2023-02-16T07:59:07.751Z,13.45
2023-02-16T08:00:11.731Z,12.60
2023-02-16T08:01:15.946Z,13.15
2023-02-16T08:02:19.753Z,14.85
2023-02-16T08:03:21.951Z,13.00
2023-02-16T08:04:25.102Z,15.75
2023-02-16T08:05:27.082Z,15.10
2023-02-16T08:06:30.188Z,14.15
2023-02-16T08:07:32.156Z,13.23
2023-02-16T08:08:35.139Z,13.05
2023-02-16T08:09:38.084Z,14.13
2023-02-16T08:10:40.223Z,15.68
2023-02-16T08:11:43.293Z,18.00
2023-02-16T08:12:49.743Z,16.88
2023-02-16T08:13:51.999Z,16.80
2023-02-16T08:14:54.974Z,14.77
2023-02-16T08:15:56.933Z,15.02
2023-02-16T08:16:59.961Z,15.57
2023-02-16T08:18:01.895Z,14.85
2023-02-16T08:19:05.054Z,15.13
2023-02-16T08:20:10.816Z,17.48
2023-02-16T08:21:16.084Z,15.45
2023-02-16T08:22:19.411Z,16.75
2023-02-16T08:23:21.384Z,15.55
2023-02-16T08:24:25.057Z,15.00
2023-02-16T08:25:27.286Z,14.90
2023-02-16T08:26:36.749Z,14.88
2023-02-16T08:27:38.733Z,15.30
2023-02-16T08:28:45.969Z,14.85
2023-02-16T08:29:49.107Z,15.15
2023-02-16T08:30:51.391Z,14.30
2023-02-16T08:31:55.500Z,15.70
2023-02-16T08:33:00.888Z,16.70
2023-02-16T08:34:04.769Z,14.82
2023-02-16T08:35:07.864Z,16.17
2023-02-16T08:36:18.383Z,16.67
2023-02-16T08:37:22.608Z,17.48
2023-02-16T08:38:24.811Z,16.38
2023-02-16T08:39:29.917Z,15.18
2023-02-16T08:40:31.990Z,13.05
2023-02-16T08:41:37.224Z,14.52
2023-02-16T08:42:40.607Z,15.10
2023-02-16T08:43:44.443Z,12.85
2023-02-16T08:44:47.833Z,16.15
2023-02-16T08:45:49.889Z,15.75
2023-02-16T08:46:54.960Z,14.75
2023-02-16T08:47:57.495Z,15.43
2023-02-16T08:49:01.711Z,15.52
2023-02-16T08:50:03.889Z,18.08
2023-02-16T08:51:07.525Z,15.10
2023-02-16T08:52:12.380Z,15.50
2023-02-16T08:53:15.365Z,14.55
2023-02-16T08:54:20.158Z,13.18
2023-02-16T08:55:24.168Z,16.27
2023-02-16T08:56:27.158Z,17.58
2023-02-16T08:57:30.287Z,15.90
2023-02-16T08:58:32.448Z,15.38
2023-02-16T08:59:36.813Z,16.25
2023-02-16T09:00:39.068Z,17.63
2023-02-16T09:01:42.227Z,18.55
2023-02-16T09:02:44.820Z,17.60
2023-02-16T09:03:48.509Z,33.17
2023-02-16T09:04:52.245Z,25.40
2023-02-16T09:05:55.037Z,24.00
2023-02-16T09:06:59.559Z,22.02
2023-02-16T09:08:01.562Z,21.60
2023-02-16T09:09:04.993Z,16.77
2023-02-16T09:10:08.780Z,14.50
2023-02-16T09:11:13.666Z,14.77
2023-02-16T09:12:16.564Z,17.13
2023-02-16T09:13:19.511Z,15.20
2023-02-16T09:14:22.983Z,19.50
2023-02-16T09:15:27.553Z,17.63
2023-02-16T09:16:33.894Z,16.05
2023-02-16T09:17:37.419Z,18.35
2023-02-16T09:18:39.881Z,19.85
2023-02-16T09:19:43.467Z,18.77
2023-02-16T09:20:47.084Z,17.70
2023-02-16T09:21:51.940Z,16.63
2023-02-16T09:22:53.966Z,18.48
2023-02-16T09:23:58.238Z,16.90
2023-02-16T09:25:01.274Z,17.42
2023-02-16T09:26:07.022Z,17.02
2023-02-16T09:27:11.473Z,16.17
2023-02-16T09:28:13.792Z,16.60
2023-02-16T09:29:16.662Z,17.77
2023-02-16T09:30:18.745Z,19.60
2023-02-16T09:31:27.296Z,18.80
2023-02-16T09:32:30.411Z,18.27
2023-02-16T09:33:33.548Z,17.70
2023-02-16T09:34:37.894Z,18.52
2023-02-16T09:35:40.105Z,17.33
2023-02-16T09:36:43.354Z,16.60
2023-02-16T09:37:45.276Z,18.33
2023-02-16T09:38:49.077Z,19.50
2023-02-16T09:39:52.011Z,19.95
2023-02-16T09:40:54.067Z,17.90
2023-02-16T09:42:12.238Z,19.23
2023-02-16T09:43:36.096Z,17.38
2023-02-16T09:44:52.163Z,18.40
2023-02-16T09:45:58.648Z,18.88
2023-02-16T09:47:05.861Z,16.85
2023-02-16T09:48:19.898Z,15.43
2023-02-16T09:49:27.587Z,17.08
2023-02-16T09:50:53.084Z,18.13
2023-02-16T09:52:03.065Z,18.65
2023-02-16T09:53:17.921Z,17.42
2023-02-16T09:54:28.288Z,18.65
2023-02-16T09:55:37.927Z,18.85
2023-02-16T09:56:46.277Z,18.92
2023-02-16T09:57:58.724Z,16.40
2023-02-16T09:59:10.730Z,16.25
2023-02-16T10:00:24.449Z,16.80
2023-02-16T10:01:33.662Z,16.80
2023-02-16T10:02:50.031Z,16.42
2023-02-16T10:04:01.922Z,16.98
2023-02-16T10:05:18.125Z,17.55
2023-02-16T10:06:43.003Z,16.55
2023-02-16T10:07:56.306Z,17.38
2023-02-16T10:09:04.230Z,15.90
2023-02-16T10:10:09.441Z,17.02
2023-02-16T10:11:31.846Z,16.52
2023-02-16T10:12:39.828Z,16.70
2023-02-16T10:13:53.522Z,16.80
2023-02-16T10:15:01.359Z,18.30
2023-02-16T10:16:10.843Z,18.23
2023-02-16T10:17:22.084Z,17.63
2023-02-16T10:18:36.658Z,18.30
2023-02-16T10:19:46.050Z,19.17
2023-02-16T10:20:52.328Z,20.00
2023-02-16T10:21:59.123Z,18.60
2023-02-16T10:23:08.325Z,17.08
2023-02-16T10:24:12.352Z,17.27
2023-02-16T10:25:19.526Z,16.38
2023-02-16T10:26:28.356Z,15.20
2023-02-16T10:27:39.116Z,15.18
2023-02-16T10:28:46.333Z,14.55
2023-02-16T10:29:49.547Z,16.42
2023-02-16T10:31:02.917Z,19.15
2023-02-16T10:32:24.025Z,21.10
2023-02-16T10:33:39.385Z,18.15
2023-02-16T10:34:50.350Z,17.23
2023-02-16T10:36:01.300Z,15.73
2023-02-16T10:37:20.670Z,15.90
2023-02-16T10:38:32.241Z,15.35
2023-02-16T10:39:40.763Z,15.25
2023-02-16T10:40:51.839Z,12.05
2023-02-16T10:42:03.529Z,15.52
2023-02-16T10:43:16.296Z,16.45
2023-02-16T10:44:23.720Z,17.88
2023-02-16T10:45:32.923Z,15.65
2023-02-16T10:46:40.933Z,14.77
2023-02-16T10:47:45.218Z,16.25
2023-02-16T10:48:52.961Z,17.60
2023-02-16T10:49:56.076Z,16.10
2023-02-16T10:51:02.860Z,17.52
2023-02-16T10:52:07.894Z,17.73
2023-02-16T10:53:16.718Z,15.98
2023-02-16T10:54:22.463Z,16.83
2023-02-16T10:55:26.117Z,15.75
2023-02-16T10:56:44.875Z,18.00
2023-02-16T10:57:54.622Z,16.50
2023-02-16T10:58:57.463Z,16.50
2023-02-16T11:00:04.695Z,17.83
2023-02-16T11:01:15.363Z,18.08
2023-02-16T11:02:19.718Z,18.17
2023-02-16T11:03:26.490Z,17.92
2023-02-16T11:04:39.830Z,17.45
2023-02-16T11:05:43.147Z,16.38
2023-02-16T11:07:03.211Z,18.25
2023-02-16T11:08:08.166Z,16.80
2023-02-16T11:09:16.937Z,17.88
2023-02-16T11:10:22.071Z,16.92
2023-02-16T11:11:26.398Z,16.58
2023-02-16T11:12:32.396Z,18.70
2023-02-16T11:13:37.233Z,19.23
2023-02-16T11:14:40.821Z,19.27
2023-02-16T11:15:44.439Z,18.23
2023-02-16T11:16:47.931Z,17.65
2023-02-16T11:17:52.945Z,17.48
2023-02-16T11:19:01.670Z,17.70
2023-02-16T11:20:10.153Z,17.27
2023-02-16T11:21:12.471Z,17.80
2023-02-16T11:22:27.901Z,18.50
2023-02-16T11:23:32.687Z,18.27
2023-02-16T11:24:37.596Z,17.42
2023-02-16T11:25:40.965Z,17.33
2023-02-16T11:26:43.959Z,19.60
2023-02-16T11:27:52.402Z,18.80
2023-02-16T11:29:07.530Z,19.77
2023-02-16T11:30:22.445Z,16.23
2023-02-16T11:31:32.620Z,18.60
2023-02-16T11:32:34.696Z,17.63
2023-02-16T11:33:38.731Z,19.13
2023-02-16T11:34:46.885Z,19.35
2023-02-16T11:35:52.095Z,18.55
2023-02-16T11:37:03.335Z,19.45
2023-02-16T11:38:07.457Z,18.20
2023-02-16T11:39:20.100Z,18.52
2023-02-16T11:40:26.191Z,17.90
2023-02-16T11:41:30.325Z,19.13
2023-02-16T11:42:36.092Z,18.25
2023-02-16T11:43:43.400Z,19.23
2023-02-16T11:44:54.075Z,17.25
2023-02-16T11:46:02.583Z,19.95
2023-02-16T11:47:09.383Z,20.45
2023-02-16T11:48:15.228Z,17.17
2023-02-16T11:49:31.593Z,17.85
2023-02-16T11:50:38.544Z,18.27
2023-02-16T11:51:41.885Z,18.20
2023-02-16T11:52:47.087Z,22.35
2023-02-16T11:54:02.735Z,20.85
2023-02-16T11:55:18.337Z,19.20
2023-02-16T11:56:27.124Z,17.90
2023-02-16T11:57:32.095Z,19.10
2023-02-16T11:58:34.026Z,19.27
2023-02-16T11:59:39.568Z,20.40
2023-02-16T12:00:46.795Z,21.42
2023-02-16T12:02:25.768Z,20.90
2023-02-16T12:03:47.573Z,21.05
2023-02-16T12:05:07.553Z,20.95
2023-02-16T12:06:28.459Z,19.38
2023-02-16T12:07:40.536Z,20.38
2023-02-16T12:08:53.015Z,18.65
2023-02-16T12:10:02.999Z,20.55
2023-02-16T12:11:19.429Z,20.58
2023-02-16T12:12:30.955Z,20.25
2023-02-16T12:13:43.047Z,20.73
2023-02-16T12:14:54.742Z,22.40
2023-02-16T12:16:08.274Z,20.33
2023-02-16T12:17:27.887Z,21.33
2023-02-16T12:18:38.939Z,20.50
2023-02-16T12:19:44.522Z,21.05
2023-02-16T12:20:54.722Z,22.13
2023-02-16T12:22:04.575Z,23.00
2023-02-16T12:23:26.837Z,23.75
2023-02-16T12:24:45.979Z,18.15
2023-02-16T12:26:00.032Z,22.15
2023-02-16T12:27:04.220Z,21.25
2023-02-16T12:28:18.488Z,20.63
2023-02-16T12:29:35.282Z,20.10
2023-02-16T12:30:52.644Z,20.75
2023-02-16T12:32:21.463Z,21.02
2023-02-16T12:33:38.592Z,21.40
2023-02-16T12:34:55.689Z,22.50
2023-02-16T12:36:12.865Z,21.48
2023-02-16T12:37:22.611Z,21.38
2023-02-16T12:38:37.258Z,22.20
2023-02-16T12:39:48.039Z,21.00
2023-02-16T12:41:01.668Z,21.95
2023-02-16T12:42:21.911Z,20.85
2023-02-16T12:43:34.338Z,23.08
2023-02-16T12:44:42.595Z,19.83
2023-02-16T12:45:48.209Z,21.30
2023-02-16T12:46:58.918Z,21.05
2023-02-16T12:48:08.806Z,23.50
2023-02-16T12:49:17.672Z,20.10
2023-02-16T12:50:23.283Z,21.15
2023-02-16T12:51:31.595Z,21.13
2023-02-16T12:52:41.286Z,21.83
2023-02-16T12:53:51.973Z,20.25
2023-02-16T12:55:00.686Z,21.13
2023-02-16T12:56:08.201Z,24.23
2023-02-16T12:57:14.369Z,23.95
2023-02-16T12:58:21.879Z,23.38
2023-02-16T12:59:31.751Z,23.13
2023-02-16T13:00:46.414Z,24.65
2023-02-16T13:01:52.652Z,22.75
2023-02-16T13:03:00.311Z,23.65
2023-02-16T13:04:14.258Z,21.33
2023-02-16T13:05:23.604Z,21.33
2023-02-16T13:06:31.797Z,22.23
2023-02-16T13:07:39.844Z,23.55
2023-02-16T13:08:48.626Z,24.40
2023-02-16T13:09:58.966Z,22.73
2023-02-16T13:11:10.522Z,21.52
2023-02-16T13:12:21.982Z,22.02
2023-02-16T13:13:26.679Z,21.38
2023-02-16T13:14:34.761Z,21.90
2023-02-16T13:15:41.478Z,22.67
2023-02-16T13:16:48.240Z,21.73
2023-02-16T13:17:57.048Z,24.90
2023-02-16T13:19:00.091Z,21.30
2023-02-16T13:20:04.404Z,21.92
2023-02-16T13:21:11.817Z,21.88
2023-02-16T13:22:47.562Z,21.58
2023-02-16T13:24:00.568Z,20.88
2023-02-16T13:25:22.218Z,22.23
2023-02-16T13:26:50.088Z,22.13
2023-02-16T13:28:06.815Z,24.52
2023-02-16T13:29:35.305Z,22.27
2023-02-16T13:30:57.221Z,21.58
2023-02-16T13:32:22.898Z,22.55
2023-02-16T13:33:45.088Z,23.15
2023-02-16T13:35:24.482Z,24.25
2023-02-16T13:36:54.182Z,23.23
2023-02-16T13:38:05.937Z,23.75
2023-02-16T13:39:42.350Z,21.58
2023-02-16T13:41:06.555Z,22.00
2023-02-16T13:42:34.558Z,22.65
2023-02-16T13:43:42.052Z,24.67
2023-02-16T13:44:48.457Z,26.90
2023-02-16T13:45:54.581Z,24.27
2023-02-16T13:46:57.077Z,26.27
2023-02-16T13:48:00.950Z,24.90
2023-02-16T13:49:04.382Z,25.70
2023-02-16T13:50:27.341Z,24.13
2023-02-16T13:51:42.803Z,21.10
2023-02-16T13:52:44.791Z,23.17
2023-02-16T13:53:55.394Z,24.17
2023-02-16T13:55:01.399Z,25.15
2023-02-16T13:56:23.185Z,26.60
2023-02-16T13:57:58.268Z,24.25
2023-02-16T13:59:18.640Z,23.75
2023-02-16T14:00:29.947Z,24.20
2023-02-16T14:01:39.172Z,23.45
2023-02-16T14:02:57.397Z,22.83
2023-02-16T14:04:01.230Z,22.13
2023-02-16T14:05:09.944Z,22.98
2023-02-16T14:06:34.530Z,23.35
2023-02-16T14:07:38.199Z,22.55
2023-02-16T14:08:42.985Z,23.50
2023-02-16T14:09:48.741Z,25.88
2023-02-16T14:11:10.971Z,24.98
2023-02-16T14:12:17.692Z,23.85
2023-02-16T14:13:21.899Z,23.98
2023-02-16T14:14:30.197Z,23.63
2023-02-16T14:15:34.083Z,23.08
2023-02-16T14:16:37.176Z,21.45
2023-02-16T14:17:40.196Z,21.90
2023-02-16T14:18:45.885Z,24.95
2023-02-16T14:19:55.384Z,25.73
2023-02-16T14:21:01.519Z,22.38
2023-02-16T14:22:12.184Z,21.73
2023-02-16T14:23:29.691Z,23.33
2023-02-16T14:24:34.042Z,23.73
2023-02-16T14:25:40.080Z,25.48
2023-02-16T14:27:05.988Z,24.05
2023-02-16T14:28:42.252Z,21.50